createdAt,value
2022-08-22T00:02:41.074Z,10.68
2022-08-22T00:02:59.281Z,10.57
2022-08-22T00:05:32.070Z,11.52
2022-08-22T00:08:08.436Z,14.88
2022-08-22T00:10:53.068Z,13.65
2022-08-22T00:13:27.931Z,11.18
2022-08-22T00:16:16.448Z,10.75
2022-08-22T00:18:51.216Z,10.15
2022-08-22T00:21:32.633Z,10.57
2022-08-22T00:26:45.455Z,10.35
2022-08-22T00:29:25.276Z,10.18
2022-08-22T00:32:06.622Z,10.77
2022-08-22T00:37:15.800Z,10.35
2022-08-22T00:39:52.372Z,9.85
2022-08-22T00:42:40.443Z,9.68
2022-08-22T00:45:19.242Z,10.45
2022-08-22T00:48:04.590Z,9.75
2022-08-22T00:51:05.017Z,10.43
2022-08-22T00:53:52.874Z,9.63
2022-08-22T00:56:36.643Z,9.15
2022-08-22T00:59:23.453Z,10.68
2022-08-22T01:01:53.777Z,9.55
2022-08-22T01:04:40.101Z,9.75
2022-08-22T01:07:24.974Z,9.50
2022-08-22T01:10:32.952Z,9.52
2022-08-22T01:13:41.439Z,9.43
2022-08-22T01:16:38.769Z,10.38
2022-08-22T01:19:17.256Z,9.13
2022-08-22T01:22:05.073Z,9.60
2022-08-22T01:25:18.398Z,10.27
2022-08-22T01:28:16.855Z,9.43
2022-08-22T01:31:02.606Z,9.40
2022-08-22T01:34:13.988Z,9.45
2022-08-22T01:36:57.656Z,10.45
2022-08-22T01:39:59.749Z,8.88
2022-08-22T01:43:05.391Z,10.45
2022-08-22T01:46:01.678Z,11.10
2022-08-22T01:48:38.135Z,9.25
2022-08-22T01:51:27.160Z,9.93
2022-08-22T01:54:03.509Z,9.52
2022-08-22T01:56:42.916Z,10.48
2022-08-22T01:59:17.616Z,9.43
2022-08-22T02:02:14.527Z,10.55
2022-08-22T02:05:07.961Z,9.68
2022-08-22T02:08:02.430Z,10.65
2022-08-22T02:10:57.191Z,9.65
2022-08-22T02:13:51.477Z,9.77
2022-08-22T02:16:21.218Z,9.52
2022-08-22T02:19:04.980Z,9.63
2022-08-22T02:21:47.064Z,11.40
2022-08-22T02:24:23.419Z,10.27
2022-08-22T02:27:24.836Z,10.15
2022-08-22T02:30:18.643Z,9.80
2022-08-22T02:33:10.750Z,9.02
2022-08-22T02:35:46.982Z,9.35
2022-08-22T02:38:58.392Z,9.90
2022-08-22T02:41:44.990Z,10.18
2022-08-22T02:44:25.867Z,15.23
2022-08-22T02:47:26.223Z,13.80
2022-08-22T02:50:04.565Z,11.07
2022-08-22T02:52:45.566Z,10.77
2022-08-22T02:55:18.399Z,12.05
2022-08-22T02:58:00.996Z,11.45
2022-08-22T03:00:33.290Z,11.48
2022-08-22T03:03:14.830Z,11.48
2022-08-22T03:08:17.166Z,12.43
2022-08-22T03:11:19.281Z,12.55
2022-08-22T03:14:09.382Z,12.20
2022-08-22T03:16:45.106Z,13.65
2022-08-22T03:19:42.506Z,13.38
2022-08-22T03:22:16.970Z,13.85
2022-08-22T03:25:19.687Z,13.52
2022-08-22T03:27:57.886Z,13.05
2022-08-22T03:30:51.371Z,13.73
2022-08-22T03:33:22.800Z,13.45
2022-08-22T03:36:03.103Z,12.80
2022-08-22T03:38:45.824Z,12.43
2022-08-22T03:41:24.582Z,12.52
2022-08-22T03:44:00.430Z,11.82
2022-08-22T03:46:52.948Z,13.05
2022-08-22T03:49:38.326Z,13.68
2022-08-22T03:52:12.853Z,13.77
2022-08-22T03:54:45.685Z,13.73
2022-08-22T03:57:24.831Z,12.70
2022-08-22T04:00:36.956Z,13.30
2022-08-22T04:03:38.458Z,12.75
2022-08-22T04:06:11.380Z,14.02
2022-08-22T04:09:12.231Z,13.90
2022-08-22T04:12:00.262Z,12.80
2022-08-22T04:14:45.076Z,14.25
2022-08-22T04:17:50.520Z,15.27
2022-08-22T04:20:50.429Z,15.52
2022-08-22T04:23:41.102Z,16.05
2022-08-22T04:26:17.298Z,16.05
2022-08-22T04:29:30.833Z,15.32
2022-08-22T04:32:10.593Z,15.85
2022-08-22T04:34:48.990Z,15.55
2022-08-22T04:37:31.692Z,15.05
2022-08-22T04:40:16.942Z,15.23
2022-08-22T04:43:06.635Z,14.80
2022-08-22T04:46:08.205Z,14.35
2022-08-22T04:51:04.649Z,14.80
2022-08-22T04:53:54.798Z,15.43
2022-08-22T04:56:24.752Z,15.93
2022-08-22T04:59:07.715Z,15.60
2022-08-22T05:01:55.096Z,15.02
2022-08-22T05:04:30.441Z,15.52
2022-08-22T05:07:05.393Z,14.55
2022-08-22T05:09:35.936Z,14.00
2022-08-22T05:12:09.210Z,17.60
2022-08-22T05:14:41.413Z,15.75
2022-08-22T05:17:15.504Z,14.98
2022-08-22T05:19:50.735Z,14.93
2022-08-22T05:22:21.844Z,14.75
2022-08-22T05:24:53.715Z,14.10
2022-08-22T05:27:35.787Z,15.15
2022-08-22T05:30:09.852Z,14.43
2022-08-22T05:33:03.607Z,15.23
2022-08-22T05:35:40.068Z,15.48
2022-08-22T05:38:12.032Z,16.17
2022-08-22T05:40:39.490Z,14.68
2022-08-22T05:43:11.618Z,13.75
2022-08-22T05:45:40.546Z,14.60
2022-08-22T05:48:20.457Z,13.98
2022-08-22T05:51:00.682Z,13.27
2022-08-22T05:53:37.604Z,14.15
2022-08-22T05:56:13.545Z,13.95
2022-08-22T05:58:43.051Z,13.77
2022-08-22T06:01:21.718Z,11.10
2022-08-22T06:04:11.801Z,11.85
2022-08-22T06:06:56.659Z,11.82
2022-08-22T06:09:53.863Z,40.53
2022-08-22T06:13:01.596Z,17.73
2022-08-22T06:15:44.037Z,12.90
2022-08-22T06:18:17.563Z,12.48
2022-08-22T06:20:49.378Z,12.43
2022-08-22T06:23:23.648Z,12.55
2022-08-22T06:25:52.387Z,12.07
2022-08-22T06:28:25.664Z,12.57
2022-08-22T06:30:55.806Z,13.00
2022-08-22T06:33:27.179Z,11.57
2022-08-22T06:36:28.384Z,11.52
2022-08-22T06:39:13.064Z,10.00
2022-08-22T06:41:49.501Z,10.52
2022-08-22T06:44:21.572Z,8.98
2022-08-22T06:46:52.350Z,8.02
2022-08-22T06:49:23.354Z,9.95
2022-08-22T06:51:51.350Z,10.55
2022-08-22T06:54:25.343Z,9.77
2022-08-22T06:56:55.367Z,9.43
2022-08-22T06:59:30.783Z,9.57
2022-08-22T07:02:22.231Z,8.40
2022-08-22T07:07:20.117Z,7.22
2022-08-22T07:09:51.365Z,6.95
2022-08-22T07:14:52.699Z,5.65
2022-08-22T07:17:27.683Z,6.28
2022-08-22T07:20:05.227Z,6.25
2022-08-22T07:22:35.051Z,6.18
2022-08-22T07:25:08.447Z,7.00
2022-08-22T07:27:38.563Z,6.93
2022-08-22T07:32:43.292Z,6.78
2022-08-22T07:35:22.165Z,6.63
2022-08-22T07:38:19.794Z,6.45
2022-08-22T07:41:14.619Z,5.70
2022-08-22T07:43:51.565Z,6.10
2022-08-22T07:46:42.656Z,7.07
2022-08-22T07:49:23.827Z,7.15
2022-08-22T07:51:58.945Z,10.32
2022-08-22T07:54:41.662Z,6.10
2022-08-22T07:57:13.942Z,5.68
2022-08-22T07:59:47.854Z,6.45
2022-08-22T08:02:17.542Z,6.13
2022-08-22T08:04:48.154Z,6.22
2022-08-22T08:07:19.614Z,5.60
2022-08-22T08:09:52.536Z,6.15
2022-08-22T08:12:26.291Z,4.75
2022-08-22T08:14:56.726Z,5.38
2022-08-22T08:17:32.354Z,5.03
2022-08-22T08:20:09.552Z,4.80
2022-08-22T08:22:38.798Z,4.22
2022-08-22T08:25:07.713Z,5.50
2022-08-22T08:27:56.882Z,5.50
2022-08-22T08:30:46.892Z,6.00
2022-08-22T08:33:25.808Z,5.28
2022-08-22T08:36:37.937Z,5.22
2022-08-22T08:39:19.669Z,5.75
2022-08-22T08:41:59.050Z,5.43
2022-08-22T08:44:38.384Z,5.88
2022-08-22T08:47:32.951Z,5.50
2022-08-22T08:50:29.218Z,6.10
2022-08-22T08:53:03.605Z,6.47
2022-08-22T08:55:54.469Z,6.13
2022-08-22T08:58:51.066Z,6.22
2022-08-22T09:01:29.482Z,5.65
2022-08-22T09:04:06.812Z,8.88
2022-08-22T09:07:18.950Z,5.55
2022-08-22T09:10:09.368Z,6.60
2022-08-22T09:12:55.970Z,5.63
2022-08-22T09:16:04.404Z,11.95
2022-08-22T09:18:41.277Z,6.85
2022-08-22T09:24:23.185Z,6.25
2022-08-22T09:27:20.257Z,6.05
2022-08-22T09:29:54.818Z,5.47
2022-08-22T09:33:01.071Z,6.38
2022-08-22T09:35:31.070Z,6.78
2022-08-22T09:38:01.819Z,6.57
2022-08-22T09:40:16.449Z,6.00
2022-08-22T09:40:49.963Z,7.63
2022-08-22T09:43:37.581Z,5.85
2022-08-22T09:46:31.361Z,6.20
2022-08-22T09:49:36.066Z,6.60
2022-08-22T09:52:15.662Z,6.95
2022-08-22T09:55:08.679Z,5.85
2022-08-22T09:57:52.388Z,5.80
2022-08-22T10:00:25.782Z,7.20
2022-08-22T10:03:07.863Z,8.00
2022-08-22T10:05:43.988Z,6.00
2022-08-22T10:08:19.704Z,6.82
2022-08-22T10:11:07.942Z,6.30
2022-08-22T10:14:05.060Z,6.15
2022-08-22T10:16:48.400Z,6.15
2022-08-22T10:19:24.596Z,8.07
2022-08-22T10:22:31.127Z,6.05
2022-08-22T10:25:07.581Z,7.95
2022-08-22T10:28:02.991Z,8.13
2022-08-22T10:30:52.240Z,7.80
2022-08-22T10:33:33.234Z,7.80
2022-08-22T10:36:11.724Z,7.18
2022-08-22T10:38:50.471Z,6.45
2022-08-22T10:41:45.533Z,6.93
2022-08-22T10:44:13.096Z,8.05
2022-08-22T10:46:48.723Z,8.10
2022-08-22T10:49:34.706Z,8.20
2022-08-22T10:52:18.813Z,11.35
2022-08-22T10:55:00.969Z,7.03
2022-08-22T10:57:40.675Z,6.50
2022-08-22T11:00:31.386Z,7.95
2022-08-22T11:03:25.093Z,9.20
2022-08-22T11:05:58.563Z,4.70
2022-08-22T11:08:54.218Z,6.15
2022-08-22T11:11:45.590Z,6.63
2022-08-22T11:14:51.785Z,8.05
2022-08-22T11:17:31.185Z,7.28
2022-08-22T11:20:31.965Z,6.68
2022-08-22T11:23:11.805Z,6.70
2022-08-22T11:26:04.910Z,4.97
2022-08-22T11:28:53.276Z,5.05
2022-08-22T11:31:24.281Z,4.97
2022-08-22T11:34:20.578Z,4.38
2022-08-22T11:37:00.137Z,5.43
2022-08-22T11:39:51.433Z,7.90
2022-08-22T11:42:33.391Z,11.35
2022-08-22T11:45:05.045Z,5.45
2022-08-22T11:47:53.114Z,5.05
2022-08-22T11:50:21.616Z,4.78
2022-08-22T11:53:24.365Z,4.90
2022-08-22T11:56:12.701Z,5.22
2022-08-22T11:59:10.336Z,5.15
2022-08-22T12:01:59.409Z,4.50
2022-08-22T12:04:46.616Z,5.18
2022-08-22T12:07:16.206Z,5.60
2022-08-22T12:09:52.101Z,4.80
2022-08-22T12:12:25.140Z,4.72
2022-08-22T12:15:19.487Z,5.80
2022-08-22T12:18:09.958Z,5.15
2022-08-22T12:20:57.743Z,4.32
2022-08-22T12:23:53.434Z,5.10
2022-08-22T12:26:47.553Z,5.00
2022-08-22T12:29:39.930Z,4.80
2022-08-22T12:32:43.835Z,4.35
2022-08-22T12:35:41.276Z,4.63
2022-08-22T12:38:26.682Z,4.97
2022-08-22T12:41:28.491Z,5.70
2022-08-22T12:44:29.251Z,4.40
2022-08-22T12:47:34.320Z,4.15
2022-08-22T12:50:19.616Z,3.55
2022-08-22T12:53:00.690Z,4.53
2022-08-22T12:55:30.688Z,4.88
2022-08-22T12:58:11.635Z,5.30
2022-08-22T13:00:43.984Z,4.90
2022-08-22T13:03:29.706Z,4.85
2022-08-22T13:06:00.517Z,7.95
2022-08-22T13:08:44.199Z,4.40
2022-08-22T13:11:22.338Z,4.60
2022-08-22T13:13:59.183Z,5.20
2022-08-22T13:16:37.096Z,5.32
2022-08-22T13:19:13.556Z,5.57
2022-08-22T13:21:48.653Z,5.63
2022-08-22T13:24:22.772Z,4.00
2022-08-22T13:27:11.350Z,4.47
2022-08-22T13:30:07.291Z,4.90
2022-08-22T13:32:47.309Z,5.00
2022-08-22T13:35:35.740Z,3.92
2022-08-22T13:38:13.481Z,5.47
2022-08-22T13:40:47.114Z,4.45
2022-08-22T13:43:23.960Z,4.85
2022-08-22T13:45:57.002Z,4.20
2022-08-22T13:48:51.030Z,3.78
2022-08-22T13:51:50.299Z,4.50
2022-08-22T13:54:25.831Z,4.03
2022-08-22T13:57:11.611Z,4.45
2022-08-22T13:59:54.224Z,3.20
2022-08-22T14:02:24.633Z,4.15
2022-08-22T14:05:05.799Z,3.80
2022-08-22T14:07:58.789Z,3.33
2022-08-22T14:10:32.479Z,3.88
2022-08-22T14:13:00.495Z,4.53
2022-08-22T14:15:45.353Z,3.90
2022-08-22T14:18:20.214Z,3.78
2022-08-22T14:21:25.236Z,3.67
2022-08-22T14:23:58.610Z,3.20
2022-08-22T14:26:32.699Z,3.63
2022-08-22T14:29:15.067Z,3.28
2022-08-22T14:31:54.654Z,3.22
2022-08-22T14:34:22.238Z,2.88
2022-08-22T14:37:01.781Z,2.67
2022-08-22T14:39:46.961Z,2.80
2022-08-22T14:42:26.565Z,2.72
2022-08-22T14:45:02.157Z,2.95
2022-08-22T14:48:14.281Z,2.42
2022-08-22T14:50:46.178Z,2.38
2022-08-22T14:53:24.984Z,2.60
2022-08-22T14:56:08.354Z,2.95
2022-08-22T14:59:07.639Z,3.38
2022-08-22T15:01:54.463Z,3.05
2022-08-22T15:04:33.054Z,2.63
2022-08-22T15:07:02.264Z,2.53
2022-08-22T15:09:41.998Z,2.72
2022-08-22T15:12:55.761Z,2.30
2022-08-22T15:15:49.269Z,2.90
2022-08-22T15:18:34.791Z,2.13
2022-08-22T15:23:32.065Z,2.70
2022-08-22T15:26:25.884Z,2.38
2022-08-22T15:29:04.318Z,2.50
2022-08-22T15:31:31.861Z,3.42
2022-08-22T15:34:12.406Z,2.53
2022-08-22T15:37:09.920Z,2.73
2022-08-22T15:40:11.568Z,2.40
2022-08-22T15:42:47.105Z,2.72
2022-08-22T15:45:36.214Z,4.57
2022-08-22T15:48:23.720Z,2.95
2022-08-22T15:51:01.437Z,2.70
2022-08-22T15:54:13.184Z,3.10
2022-08-22T15:56:53.015Z,3.20
2022-08-22T15:59:54.126Z,2.90
2022-08-22T16:05:10.639Z,3.47
2022-08-22T16:07:39.596Z,2.83
2022-08-22T16:10:27.159Z,3.75
2022-08-22T16:13:14.945Z,3.08
2022-08-22T16:15:56.401Z,3.13
2022-08-22T16:18:42.744Z,3.53
2022-08-22T16:21:22.872Z,3.30
2022-08-22T16:23:58.251Z,3.50
2022-08-22T16:26:31.120Z,2.90
2022-08-22T16:29:04.158Z,3.97
2022-08-22T16:31:49.261Z,4.13
2022-08-22T16:34:19.202Z,3.30
2022-08-22T16:36:55.039Z,3.00
2022-08-22T16:39:21.966Z,2.92
2022-08-22T16:41:56.315Z,2.70
2022-08-22T16:44:29.090Z,2.90
2022-08-22T16:47:08.117Z,3.85
2022-08-22T16:49:40.726Z,3.28
2022-08-22T16:52:25.854Z,3.28
2022-08-22T16:54:52.712Z,3.10
2022-08-22T16:58:06.002Z,3.95
2022-08-22T17:00:41.976Z,3.35
2022-08-22T17:03:18.210Z,3.50
2022-08-22T17:05:57.034Z,3.90
2022-08-22T17:08:27.036Z,3.97
2022-08-22T17:11:12.764Z,3.75
2022-08-22T17:13:54.757Z,3.75
2022-08-22T17:16:37.142Z,4.45
2022-08-22T17:19:43.000Z,4.28
2022-08-22T17:22:19.088Z,4.15
2022-08-22T17:24:56.378Z,6.47
2022-08-22T17:27:45.038Z,5.07
2022-08-22T17:30:32.461Z,4.80
2022-08-22T17:33:52.215Z,4.68
2022-08-22T17:36:40.514Z,4.90
2022-08-22T17:39:44.558Z,4.63
2022-08-22T17:42:26.632Z,5.63
2022-08-22T17:45:02.784Z,5.68
2022-08-22T17:47:58.621Z,5.32
2022-08-22T17:50:30.852Z,5.75
2022-08-22T17:53:05.596Z,4.70
2022-08-22T17:56:03.188Z,5.20
2022-08-22T17:58:43.700Z,7.60
2022-08-22T18:01:47.773Z,5.57
2022-08-22T18:04:45.642Z,5.97
2022-08-22T18:07:14.344Z,6.30
2022-08-22T18:10:04.731Z,6.70
2022-08-22T18:12:41.010Z,7.15
2022-08-22T18:15:23.080Z,5.97
2022-08-22T18:18:07.030Z,5.85
2022-08-22T18:20:44.993Z,6.22
2022-08-22T18:23:36.206Z,6.28
2022-08-22T18:26:27.055Z,6.63
2022-08-22T18:29:10.473Z,6.18
2022-08-22T18:32:11.593Z,6.40
2022-08-22T18:35:28.845Z,8.18
2022-08-22T18:38:19.916Z,6.68
2022-08-22T18:43:24.085Z,7.15
2022-08-22T18:45:51.324Z,6.97
2022-08-22T18:48:31.793Z,6.30
2022-08-22T18:51:24.669Z,6.22
2022-08-22T18:54:19.486Z,6.00
2022-08-22T18:56:58.182Z,5.93
2022-08-22T18:59:46.900Z,7.03
2022-08-22T19:02:34.775Z,6.18
2022-08-22T19:05:30.733Z,7.10
2022-08-22T19:08:07.984Z,6.40
2022-08-22T19:10:55.518Z,6.95
2022-08-22T19:13:27.993Z,7.05
2022-08-22T19:16:10.413Z,7.35
2022-08-22T19:18:51.568Z,7.55
2022-08-22T19:21:51.992Z,6.95
2022-08-22T19:24:28.019Z,6.75
2022-08-22T19:27:10.246Z,6.95
2022-08-22T19:29:37.126Z,6.78
2022-08-22T19:32:12.916Z,7.32
2022-08-22T19:34:47.734Z,7.22
2022-08-22T19:37:32.834Z,6.75
2022-08-22T19:40:10.391Z,7.03
2022-08-22T19:42:41.642Z,7.15
2022-08-22T19:48:01.209Z,7.55
2022-08-22T19:50:35.387Z,7.65
2022-08-22T19:53:18.464Z,7.53
2022-08-22T19:56:25.873Z,7.72
2022-08-22T19:59:17.557Z,6.97
2022-08-22T20:02:02.013Z,7.72
2022-08-22T20:04:31.905Z,7.20
2022-08-22T20:07:26.135Z,7.90
2022-08-22T20:10:14.866Z,7.72
2022-08-22T20:13:05.543Z,7.55
2022-08-22T20:16:07.253Z,8.07
2022-08-22T20:19:07.254Z,6.82
2022-08-22T20:22:02.461Z,7.90
2022-08-22T20:24:39.967Z,8.00
2022-08-22T20:27:17.600Z,7.57
2022-08-22T20:30:06.386Z,8.07
2022-08-22T20:32:43.316Z,9.40
2022-08-22T20:35:21.724Z,8.70
2022-08-22T20:38:15.697Z,8.95
2022-08-22T20:40:57.862Z,9.00
2022-08-22T20:43:56.141Z,8.98
2022-08-22T20:46:53.464Z,9.18
2022-08-22T20:49:30.062Z,8.05
2022-08-22T20:52:03.431Z,9.55
2022-08-22T20:54:38.007Z,9.50
2022-08-22T20:57:19.907Z,9.73
2022-08-22T21:00:07.627Z,9.35
2022-08-22T21:02:39.309Z,8.93
2022-08-22T21:05:22.421Z,9.23
2022-08-22T21:08:04.392Z,9.57
2022-08-22T21:10:51.377Z,9.90
2022-08-22T21:13:34.477Z,9.55
2022-08-22T21:16:19.699Z,10.35
2022-08-22T21:18:49.495Z,10.57
2022-08-22T21:21:34.399Z,9.55
2022-08-22T21:24:06.624Z,9.25
2022-08-22T21:26:51.823Z,9.85
2022-08-22T21:29:23.490Z,9.82
2022-08-22T21:31:54.373Z,9.88
2022-08-22T21:34:42.608Z,9.88
2022-08-22T21:37:40.556Z,10.32
2022-08-22T21:40:15.362Z,10.90
2022-08-22T21:42:59.686Z,10.40
2022-08-22T21:45:34.465Z,10.30
2022-08-22T21:48:01.903Z,10.65
2022-08-22T21:50:38.360Z,10.38
2022-08-22T21:53:27.814Z,10.85
2022-08-22T21:56:15.174Z,10.70
2022-08-22T21:58:42.801Z,10.30
2022-08-22T22:01:32.795Z,11.68
2022-08-22T22:04:00.175Z,10.80
2022-08-22T22:06:27.828Z,10.60
2022-08-22T22:08:55.302Z,11.02
2022-08-22T22:11:22.378Z,11.70
2022-08-22T22:13:49.333Z,10.98
2022-08-22T22:16:26.886Z,11.65
2022-08-22T22:18:53.957Z,11.68
2022-08-22T22:21:21.145Z,11.35
2022-08-22T22:23:49.357Z,11.73
2022-08-22T22:26:16.329Z,11.45
2022-08-22T22:28:50.227Z,11.70
2022-08-22T22:31:18.381Z,11.20
2022-08-22T22:33:45.380Z,10.95
2022-08-22T22:36:23.590Z,11.90
2022-08-22T22:38:52.027Z,12.30
2022-08-22T22:41:20.452Z,12.55
2022-08-22T22:43:47.401Z,11.95
2022-08-22T22:46:14.437Z,11.65
2022-08-22T22:48:41.341Z,11.13
2022-08-22T22:51:10.902Z,11.52
2022-08-22T22:53:42.876Z,12.55
2022-08-22T22:56:14.262Z,12.50
2022-08-22T22:58:43.249Z,12.13
2022-08-22T23:01:13.013Z,14.05
2022-08-22T23:03:40.036Z,12.68
2022-08-22T23:06:34.382Z,12.35
2022-08-22T23:09:01.256Z,11.73
2022-08-22T23:11:30.614Z,11.85
2022-08-22T23:13:57.690Z,12.27
2022-08-22T23:16:35.046Z,12.30
2022-08-22T23:19:11.621Z,11.90
2022-08-22T23:21:39.149Z,12.25
2022-08-22T23:24:06.749Z,12.02
2022-08-22T23:26:33.742Z,12.07
2022-08-22T23:29:03.299Z,11.52
2022-08-22T23:31:33.366Z,11.77
2022-08-22T23:34:08.495Z,12.02
2022-08-22T23:36:36.288Z,12.18
2022-08-22T23:39:05.292Z,12.15
2022-08-22T23:41:32.772Z,12.05
2022-08-22T23:43:59.652Z,12.57
2022-08-22T23:46:27.718Z,11.75
2022-08-22T23:48:58.160Z,11.43
2022-08-22T23:51:26.145Z,11.75
2022-08-22T23:53:55.075Z,12.27
2022-08-22T23:56:36.788Z,12.30
2022-08-22T23:59:06.910Z,12.23
